Terminal Aerodrome Forecast
Issued by NWS Paducah, KY

Home | Current Version | Previous Version | Text Only | Print | Product List | Glossary Off
Versions: 1 2 3 4 5 6 7 8 9 10 11 12 13 14 15 16 17 18 19 20 21 22 23 24 25 26 27

046
FTUS43 KPAH 290759 AAB
TAFPAH
TAF AMD
KPAH 290759Z 2908/3006 00000KT P6SM SCT100
      TEMPO 2908/2912 3SM BR BCFG SCT005
     FM291300 20003KT P6SM BKN015
     FM291700 22006KT P6SM BKN030=

USA.gov is the U.S. government's official web portal to all federal, state and local government web resources and services.